Time;durP1;ratioP1;P1;durP2;ratioP2;P2;SDS_P1;SDS_P2;PMS_P1;PMS_P2;Temp;Humidity;BMP_temperature;BMP_pressure;BME280_temperature;BME280_humidity;BME280_pressure;Samples;Min_cycle;Max_cycle;Signal;HPM_P1;HPM_P2
2022/11/03 00:01:51;;;;;;;0.50;0.50;;;11.70;99.90;;;;;;4950676;28;20346;-84
2022/11/03 00:04:19;;;;;;;0.50;0.50;;;11.80;99.90;;;;;;4988432;28;20052;-84
2022/11/03 00:06:50;;;;;;;0.50;0.50;;;11.80;99.90;;;;;;4972748;28;20468;-86
2022/11/03 00:09:18;;;;;;;0.50;0.50;;;11.90;99.90;;;;;;4976182;28;20048;-86
2022/11/03 00:11:45;;;;;;;0.50;0.50;;;11.90;99.90;;;;;;4975489;28;20060;-87
2022/11/03 00:14:13;;;;;;;0.60;0.60;;;12.00;99.90;;;;;;4956025;28;20704;-83
2022/11/03 00:16:39;;;;;;;0.50;0.50;;;12.00;99.90;;;;;;4976475;28;20069;-84
2022/11/03 00:19:07;;;;;;;0.50;0.50;;;12.00;99.90;;;;;;4975961;28;20457;-83
2022/11/03 00:21:33;;;;;;;0.50;0.50;;;12.00;99.90;;;;;;4956425;28;20048;-85
2022/11/03 00:24:01;;;;;;;0.50;0.50;;;12.00;99.90;;;;;;4971447;28;20491;-84
2022/11/03 00:26:28;;;;;;;0.50;0.50;;;12.00;99.90;;;;;;4984577;28;20052;-82
2022/11/03 00:28:56;;;;;;;0.50;0.50;;;11.90;99.90;;;;;;4970749;28;20047;-78
2022/11/03 00:31:24;;;;;;;0.50;0.50;;;12.00;99.90;;;;;;4934907;28;20056;-81
2022/11/03 00:33:50;;;;;;;0.50;0.50;;;12.00;99.90;;;;;;4992065;28;20509;-81
2022/11/03 00:36:19;;;;;;;0.50;0.50;;;12.00;99.90;;;;;;4976910;28;20051;-82
2022/11/03 00:38:46;;;;;;;0.50;0.50;;;12.00;99.90;;;;;;4969770;28;20060;-81
2022/11/03 00:41:12;;;;;;;0.50;0.50;;;12.00;99.90;;;;;;4987173;28;20750;-83
2022/11/03 00:43:39;;;;;;;0.50;0.50;;;11.90;99.90;;;;;;4972157;28;20040;-85
2022/11/03 00:46:07;;;;;;;0.50;0.50;;;11.90;99.90;;;;;;4969705;28;20760;-83
2022/11/03 00:48:34;;;;;;;0.50;0.50;;;11.90;99.90;;;;;;4955903;28;20048;-80
2022/11/03 00:51:25;;;;;;;0.50;0.50;;;11.90;99.90;;;;;;4993206;28;20721;-83
2022/11/03 00:53:56;;;;;;;0.50;0.50;;;11.80;99.90;;;;;;4984386;28;20040;-84
2022/11/03 00:56:27;;;;;;;0.50;0.50;;;11.80;99.90;;;;;;4969035;28;20119;-83
2022/11/03 00:58:54;;;;;;;0.50;0.50;;;11.80;99.90;;;;;;4948830;28;21009;-86
2022/11/03 01:01:22;;;;;;;0.50;0.50;;;11.80;99.90;;;;;;4966841;28;20056;-86
2022/11/03 01:06:49;;;;;;;0.50;0.50;;;11.80;99.90;;;;;;4948222;28;20427;-82
2022/11/03 01:09:35;;;;;;;0.50;0.50;;;11.80;99.90;;;;;;4993832;28;20117;-83
2022/11/03 01:12:12;;;;;;;0.50;0.50;;;11.80;99.90;;;;;;4987073;28;20446;-82
2022/11/03 01:14:39;;;;;;;0.50;0.50;;;11.70;99.90;;;;;;4969575;28;20414;-85
2022/11/03 01:17:07;;;;;;;0.60;0.60;;;11.80;99.90;;;;;;4985505;28;20052;-80
2022/11/03 01:19:33;;;;;;;0.50;0.50;;;11.70;99.90;;;;;;4984091;28;20078;-85
2022/11/03 01:21:59;;;;;;;0.50;0.50;;;11.80;99.90;;;;;;4973147;28;20423;-85
2022/11/03 01:24:25;;;;;;;0.50;0.50;;;11.80;99.90;;;;;;4952090;28;20385;-83
2022/11/03 01:26:51;;;;;;;0.50;0.50;;;11.80;99.90;;;;;;4968665;28;20126;-83
2022/11/03 01:29:17;;;;;;;0.50;0.50;;;11.70;99.90;;;;;;4967786;28;20126;-82
2022/11/03 01:31:43;;;;;;;0.50;0.50;;;11.70;99.90;;;;;;4992785;28;20405;-81
2022/11/03 01:34:14;;;;;;;0.50;0.50;;;11.80;99.90;;;;;;4968317;28;20071;-80
2022/11/03 01:36:40;;;;;;;0.50;0.50;;;11.80;99.90;;;;;;4961689;28;20048;-80
2022/11/03 01:39:06;;;;;;;0.50;0.50;;;11.80;99.90;;;;;;4959724;28;20746;-82
2022/11/03 01:41:31;;;;;;;0.50;0.50;;;11.70;99.90;;;;;;4951787;28;20048;-81
2022/11/03 01:44:06;;;;;;;0.50;0.50;;;11.70;99.90;;;;;;4981280;28;20114;-83
2022/11/03 01:46:45;;;;;;;0.50;0.50;;;11.70;99.90;;;;;;4963465;28;20079;-82
2022/11/03 01:49:21;;;;;;;0.50;0.50;;;11.70;99.90;;;;;;4966306;28;20045;-80
2022/11/03 01:51:56;;;;;;;0.50;0.50;;;11.70;99.90;;;;;;4966941;28;20062;-85
2022/11/03 01:54:25;;;;;;;0.50;0.50;;;11.70;99.90;;;;;;4958795;28;20080;-84
2022/11/03 01:56:51;;;;;;;0.50;0.50;;;11.80;99.90;;;;;;4975695;28;20052;-85
2022/11/03 01:59:21;;;;;;;0.50;0.50;;;11.80;99.90;;;;;;4965609;28;20742;-85
2022/11/03 02:01:47;;;;;;;0.50;0.50;;;11.70;99.90;;;;;;4972195;28;20221;-86
2022/11/03 02:04:24;;;;;;;0.50;0.50;;;11.70;99.90;;;;;;4974124;28;20502;-82
2022/11/03 02:07:16;;;;;;;0.50;0.50;;;11.80;99.90;;;;;;4985507;28;20044;-85
2022/11/03 02:09:42;;;;;;;0.50;0.50;;;11.70;99.90;;;;;;4948066;28;20360;-85
2022/11/03 02:12:09;;;;;;;0.50;0.50;;;11.70;99.90;;;;;;4953781;28;20445;-81
2022/11/03 02:14:42;;;;;;;0.50;0.50;;;11.60;99.90;;;;;;4973437;28;20080;-85
2022/11/03 02:17:12;;;;;;;0.50;0.50;;;11.50;99.90;;;;;;4971259;28;20483;-81
2022/11/03 02:19:49;;;;;;;0.60;0.60;;;11.60;99.90;;;;;;4964645;28;20629;-84
2022/11/03 02:22:42;;;;;;;0.50;0.50;;;11.50;99.90;;;;;;4977404;28;20348;-82
2022/11/03 02:25:34;;;;;;;0.60;0.60;;;11.40;99.90;;;;;;4967820;28;20437;-80
2022/11/03 02:28:01;;;;;;;0.50;0.50;;;11.40;99.90;;;;;;4978033;28;20044;-84
2022/11/03 02:30:41;;;;;;;0.50;0.50;;;11.40;99.90;;;;;;4960256;28;20047;-84
2022/11/03 02:33:12;;;;;;;0.50;0.50;;;11.40;99.90;;;;;;4980981;28;20076;-82
2022/11/03 02:35:52;;;;;;;0.50;0.50;;;11.40;99.90;;;;;;4987139;28;20084;-83
2022/11/03 02:38:20;;;;;;;0.50;0.50;;;11.40;99.90;;;;;;4971848;28;20076;-85
2022/11/03 02:40:51;;;;;;;0.60;0.60;;;11.50;99.90;;;;;;4970292;28;20044;-85
2022/11/03 02:43:18;;;;;;;0.50;0.50;;;11.40;99.90;;;;;;4971995;28;20242;-83
2022/11/03 02:45:46;;;;;;;0.50;0.50;;;11.40;99.90;;;;;;4984549;28;20052;-81
2022/11/03 02:48:15;;;;;;;0.50;0.50;;;11.40;99.90;;;;;;4990767;28;20044;-84
2022/11/03 02:50:41;;;;;;;0.50;0.50;;;11.40;99.90;;;;;;4989106;28;20131;-83
2022/11/03 02:53:11;;;;;;;0.50;0.50;;;11.30;99.90;;;;;;4969296;28;20756;-83
2022/11/03 02:55:57;;;;;;;0.50;0.50;;;11.40;99.90;;;;;;4981614;28;20044;-84
2022/11/03 02:58:30;;;;;;;0.50;0.50;;;11.30;99.90;;;;;;4963122;28;20814;-86
2022/11/03 03:01:02;;;;;;;0.50;0.50;;;11.30;99.90;;;;;;4963437;28;20118;-86
2022/11/03 03:03:38;;;;;;;0.50;0.50;;;11.40;99.90;;;;;;4962426;28;20044;-82
2022/11/03 03:06:20;;;;;;;0.50;0.50;;;11.40;99.90;;;;;;4972110;28;20048;-85
2022/11/03 03:08:52;;;;;;;0.50;0.50;;;11.40;99.90;;;;;;4978059;28;20055;-86
2022/11/03 03:11:35;;;;;;;0.50;0.50;;;11.50;99.90;;;;;;4984913;28;20957;-85
2022/11/03 03:14:25;;;;;;;0.55;0.55;;;11.50;99.90;;;;;;4971381;28;20988;-91
2022/11/03 03:16:59;;;;;;;0.50;0.50;;;11.40;99.90;;;;;;4954438;28;20520;-85
2022/11/03 03:19:48;;;;;;;0.50;0.50;;;11.50;99.90;;;;;;4951911;28;20114;-83
2022/11/03 03:22:33;;;;;;;0.50;0.50;;;11.30;99.90;;;;;;4966465;28;20048;-87
2022/11/03 03:25:09;;;;;;;0.50;0.50;;;11.40;99.90;;;;;;4969767;28;20465;-81
2022/11/03 03:27:43;;;;;;;0.50;0.50;;;11.50;99.90;;;;;;4961579;28;20052;-84
2022/11/03 03:30:10;;;;;;;0.50;0.50;;;11.50;99.90;;;;;;4978365;28;20505;-89
2022/11/03 03:32:42;;;;;;;0.50;0.50;;;11.40;99.90;;;;;;4953234;28;20057;-82
2022/11/03 03:35:11;;;;;;;0.50;0.50;;;11.40;99.90;;;;;;4971044;28;20302;-88
2022/11/03 03:37:42;;;;;;;0.60;0.60;;;11.50;99.90;;;;;;4952525;28;20771;-82
2022/11/03 03:40:11;;;;;;;0.50;0.50;;;11.50;99.90;;;;;;4992688;28;20548;-84
2022/11/03 03:42:39;;;;;;;0.50;0.50;;;11.40;99.90;;;;;;4976398;28;20052;-86
2022/11/03 03:45:07;;;;;;;0.50;0.50;;;11.40;99.90;;;;;;4967574;28;20458;-85
2022/11/03 03:47:34;;;;;;;0.50;0.50;;;11.40;99.90;;;;;;4985517;28;20052;-87
2022/11/03 03:50:00;;;;;;;0.60;0.60;;;11.40;99.90;;;;;;4992378;28;20052;-83
2022/11/03 03:52:27;;;;;;;0.50;0.50;;;11.40;99.90;;;;;;4970309;28;20398;-84
2022/11/03 03:54:54;;;;;;;0.50;0.50;;;11.40;99.90;;;;;;4935728;28;20568;-85
2022/11/03 03:57:23;;;;;;;0.50;0.50;;;11.40;99.90;;;;;;4973293;28;20478;-85
2022/11/03 03:59:49;;;;;;;0.50;0.50;;;11.40;99.90;;;;;;4966773;28;20137;-87
2022/11/03 04:02:15;;;;;;;0.50;0.50;;;11.40;99.90;;;;;;4967689;28;20163;-85
2022/11/03 04:04:42;;;;;;;0.50;0.50;;;11.30;99.90;;;;;;4977477;28;20044;-83
2022/11/03 04:09:53;;;;;;;0.50;0.50;;;11.30;99.90;;;;;;4979610;28;20075;-83
2022/11/03 04:23:17;;;;;;;0.50;0.50;;;11.30;99.90;;;;;;4987091;28;20620;-82
2022/11/03 04:25:51;;;;;;;0.50;0.50;;;11.30;99.90;;;;;;4989950;28;20072;-83
2022/11/03 04:28:17;;;;;;;0.50;0.50;;;11.40;99.90;;;;;;4990543;28;20040;-82
2022/11/03 04:30:43;;;;;;;0.50;0.50;;;11.40;99.90;;;;;;4953639;28;20556;-82
2022/11/03 04:33:21;;;;;;;0.50;0.50;;;11.50;99.90;;;;;;4973732;28;20054;-80
2022/11/03 04:35:47;;;;;;;0.50;0.50;;;11.50;99.90;;;;;;4985929;28;20110;-84
2022/11/03 04:38:13;;;;;;;0.50;0.50;;;11.60;99.90;;;;;;4987471;28;20524;-85
2022/11/03 04:40:55;;;;;;;0.50;0.50;;;11.50;99.90;;;;;;4991192;28;20103;-84
2022/11/03 04:43:29;;;;;;;0.50;0.50;;;11.60;99.90;;;;;;4969508;28;20558;-84
2022/11/03 04:45:55;;;;;;;0.50;0.50;;;11.50;99.90;;;;;;4961698;28;21037;-80
2022/11/03 04:48:22;;;;;;;0.50;0.50;;;11.50;99.90;;;;;;4973395;28;20052;-85
2022/11/03 04:50:51;;;;;;;0.50;0.50;;;11.50;99.90;;;;;;4963502;28;20166;-85
2022/11/03 04:53:18;;;;;;;0.50;0.50;;;11.50;99.90;;;;;;4977959;28;20131;-82
2022/11/03 04:55:48;;;;;;;0.50;0.50;;;11.50;99.90;;;;;;4983337;28;20057;-83
2022/11/03 04:58:20;;;;;;;0.50;0.50;;;11.50;99.90;;;;;;4968521;28;20088;-80
2022/11/03 05:00:53;;;;;;;0.50;0.50;;;11.50;99.90;;;;;;4967574;28;20052;-81
2022/11/03 05:03:33;;;;;;;0.50;0.50;;;11.50;99.90;;;;;;4975518;28;20048;-77
2022/11/03 05:06:08;;;;;;;0.50;0.50;;;11.50;99.90;;;;;;4963641;28;20051;-82
2022/11/03 05:08:34;;;;;;;0.50;0.50;;;11.50;99.90;;;;;;4940213;28;20040;-83
2022/11/03 05:11:04;;;;;;;0.50;0.50;;;11.60;99.90;;;;;;4968251;28;20438;-81
2022/11/03 05:13:30;;;;;;;0.50;0.50;;;11.60;99.90;;;;;;4993377;28;20102;-82
2022/11/03 05:16:02;;;;;;;0.50;0.50;;;11.60;99.90;;;;;;4967994;28;20583;-80
2022/11/03 05:18:35;;;;;;;0.50;0.50;;;11.70;99.90;;;;;;4969920;28;20105;-82
2022/11/03 05:21:12;;;;;;;0.50;0.50;;;11.70;99.90;;;;;;4985925;28;21078;-83
2022/11/03 05:23:47;;;;;;;0.50;0.50;;;11.80;99.90;;;;;;4979576;28;20762;-85
2022/11/03 05:26:23;;;;;;;0.50;0.50;;;11.80;99.90;;;;;;4982509;28;20742;-83
2022/11/03 05:29:00;;;;;;;0.50;0.50;;;11.80;99.90;;;;;;4969253;28;20048;-81
2022/11/03 05:31:29;;;;;;;0.50;0.50;;;11.80;99.90;;;;;;4961881;28;20156;-81
2022/11/03 05:34:00;;;;;;;0.60;0.60;;;11.90;99.90;;;;;;4965269;28;20775;-82
2022/11/03 05:36:29;;;;;;;0.50;0.50;;;11.90;99.90;;;;;;4967541;28;20067;-83
2022/11/03 05:38:59;;;;;;;0.50;0.50;;;11.90;99.90;;;;;;4993805;28;20048;-82
2022/11/03 05:41:28;;;;;;;0.50;0.50;;;11.80;99.90;;;;;;4937692;28;20505;-81
2022/11/03 05:43:59;;;;;;;0.50;0.50;;;11.90;99.90;;;;;;4990009;28;20749;-81
2022/11/03 05:46:30;;;;;;;0.50;0.50;;;11.90;99.90;;;;;;4970965;28;20523;-82
2022/11/03 05:49:00;;;;;;;0.50;0.50;;;11.90;99.90;;;;;;4966404;28;20102;-81
2022/11/03 05:51:36;;;;;;;0.50;0.50;;;12.00;99.90;;;;;;4964061;28;20117;-82
2022/11/03 05:54:09;;;;;;;0.50;0.50;;;12.00;99.90;;;;;;4967077;28;20053;-82
2022/11/03 05:56:34;;;;;;;0.60;0.60;;;12.00;99.90;;;;;;4982411;28;20049;-84
2022/11/03 05:59:01;;;;;;;0.50;0.50;;;12.00;99.90;;;;;;4965718;28;20047;-86
2022/11/03 06:01:35;;;;;;;0.50;0.50;;;11.90;99.90;;;;;;4972910;28;20501;-82
2022/11/03 06:04:17;;;;;;;0.50;0.50;;;12.00;99.90;;;;;;4971245;28;20060;-79
2022/11/03 06:06:52;;;;;;;0.60;0.60;;;12.10;99.90;;;;;;4969757;28;20048;-82
2022/11/03 06:09:21;;;;;;;0.50;0.50;;;12.10;99.90;;;;;;4970596;28;20247;-83
2022/11/03 06:11:50;;;;;;;0.50;0.50;;;12.00;99.90;;;;;;4966754;28;20044;-82
2022/11/03 06:14:22;;;;;;;0.50;0.50;;;12.10;99.90;;;;;;4974241;28;20166;-85
2022/11/03 06:16:55;;;;;;;0.55;0.55;;;12.10;99.90;;;;;;4969461;28;20083;-83
2022/11/03 06:19:31;;;;;;;0.50;0.50;;;12.10;99.90;;;;;;4975655;28;20053;-82
2022/11/03 06:22:13;;;;;;;0.50;0.50;;;12.10;99.90;;;;;;4972908;28;20048;-79
2022/11/03 06:24:38;;;;;;;0.50;0.50;;;12.10;99.90;;;;;;4988099;28;20040;-83
2022/11/03 06:27:04;;;;;;;0.50;0.50;;;12.10;99.90;;;;;;4991545;28;20264;-83
2022/11/03 06:29:32;;;;;;;0.50;0.50;;;12.20;99.90;;;;;;4972248;28;20135;-80
2022/11/03 06:31:58;;;;;;;0.50;0.50;;;12.20;99.90;;;;;;4975213;28;20048;-85
2022/11/03 06:34:40;;;;;;;0.50;0.50;;;12.20;99.90;;;;;;4956994;28;20643;-85
2022/11/03 06:37:30;;;;;;;0.50;0.50;;;12.10;99.90;;;;;;4974099;28;20114;-82
2022/11/03 06:40:14;;;;;;;0.50;0.50;;;12.00;99.90;;;;;;4973651;28;20063;-82
2022/11/03 06:42:40;;;;;;;0.50;0.50;;;12.10;99.90;;;;;;4955261;28;20045;-79
2022/11/03 06:45:18;;;;;;;0.50;0.50;;;12.10;99.90;;;;;;4976688;28;20080;-80
2022/11/03 06:47:45;;;;;;;0.50;0.50;;;12.10;99.90;;;;;;4987194;28;20048;-86
2022/11/03 06:50:27;;;;;;;0.50;0.50;;;12.20;99.90;;;;;;4942149;28;20048;-80
2022/11/03 06:52:54;;;;;;;0.60;0.60;;;12.20;99.90;;;;;;4974902;28;20588;-82
2022/11/03 06:55:23;;;;;;;0.60;0.60;;;12.10;99.90;;;;;;4972003;28;20543;-79
2022/11/03 06:58:11;;;;;;;0.50;0.50;;;12.10;99.90;;;;;;4974072;28;20502;-83
2022/11/03 07:00:41;;;;;;;0.60;0.60;;;12.10;99.90;;;;;;4953831;28;20354;-83
2022/11/03 07:03:20;;;;;;;0.50;0.50;;;12.10;99.90;;;;;;4968517;28;20453;-86
2022/11/03 07:05:46;;;;;;;0.60;0.60;;;12.20;99.90;;;;;;4976652;28;20051;-87
2022/11/03 07:08:30;;;;;;;0.50;0.50;;;12.20;99.90;;;;;;4949218;28;20051;-86
2022/11/03 07:11:10;;;;;;;0.50;0.50;;;12.20;99.90;;;;;;4977201;28;20560;-82
2022/11/03 07:13:36;;;;;;;0.50;0.50;;;12.20;99.90;;;;;;4991159;28;20050;-86
2022/11/03 07:16:02;;;;;;;0.60;0.60;;;12.20;99.90;;;;;;4966561;28;20067;-80
2022/11/03 07:18:41;;;;;;;0.50;0.50;;;12.20;99.90;;;;;;4984195;28;20091;-77
2022/11/03 07:21:26;;;;;;;0.50;0.50;;;12.30;99.90;;;;;;4968715;28;20400;-83
2022/11/03 07:23:52;;;;;;;0.50;0.50;;;12.40;99.90;;;;;;4980988;28;20047;-81
2022/11/03 07:26:17;;;;;;;0.60;0.60;;;12.40;99.90;;;;;;4967300;28;20051;-77
2022/11/03 07:28:47;;;;;;;0.60;0.60;;;12.50;99.90;;;;;;4980981;28;20127;-85
2022/11/03 07:31:21;;;;;;;0.50;0.50;;;12.50;99.90;;;;;;4958154;28;20089;-86
2022/11/03 07:33:46;;;;;;;0.50;0.50;;;12.50;99.90;;;;;;4978644;28;20889;-82
2022/11/03 07:36:20;;;;;;;0.50;0.50;;;12.50;99.90;;;;;;4989246;28;20082;-82
2022/11/03 07:38:50;;;;;;;0.52;0.52;;;12.60;99.90;;;;;;4964604;28;20057;-79
2022/11/03 07:41:23;;;;;;;0.50;0.50;;;12.60;99.90;;;;;;4965154;28;20785;-83
2022/11/03 07:43:57;;;;;;;0.50;0.50;;;12.60;99.90;;;;;;4976363;28;20248;-79
2022/11/03 07:46:24;;;;;;;0.50;0.50;;;12.80;99.90;;;;;;4959965;28;20044;-79
2022/11/03 07:49:00;;;;;;;0.50;0.50;;;12.80;99.90;;;;;;4957933;28;20037;-85
2022/11/03 07:51:39;;;;;;;0.50;0.50;;;12.80;99.90;;;;;;4951444;28;20056;-83
2022/11/03 07:54:40;;;;;;;0.50;0.50;;;12.90;99.90;;;;;;4966175;28;20514;-80
2022/11/03 07:57:29;;;;;;;0.50;0.50;;;13.00;99.90;;;;;;4926584;28;20522;-83
2022/11/03 08:00:06;;;;;;;0.50;0.50;;;13.10;99.90;;;;;;4967218;28;20056;-81
2022/11/03 08:02:58;;;;;;;0.50;0.50;;;13.10;99.90;;;;;;4974647;28;20451;-86
2022/11/03 08:05:24;;;;;;;0.50;0.50;;;13.10;99.90;;;;;;4967303;28;20067;-82
2022/11/03 08:07:50;;;;;;;0.50;0.50;;;13.20;99.90;;;;;;4968961;28;20041;-81
2022/11/03 08:10:16;;;;;;;0.50;0.50;;;13.20;99.90;;;;;;4972077;28;20059;-82
2022/11/03 08:12:42;;;;;;;0.50;0.50;;;13.20;99.90;;;;;;4974136;28;20112;-82
2022/11/03 08:15:08;;;;;;;0.50;0.50;;;13.30;99.90;;;;;;4970074;28;20266;-83
2022/11/03 08:17:34;;;;;;;0.50;0.50;;;13.40;99.90;;;;;;4953883;28;20048;-85
2022/11/03 08:19:59;;;;;;;0.50;0.50;;;13.50;99.90;;;;;;4961848;28;20257;-80
2022/11/03 08:22:25;;;;;;;0.50;0.50;;;13.50;99.90;;;;;;4962584;28;20052;-83
2022/11/03 08:24:51;;;;;;;0.50;0.50;;;13.60;99.90;;;;;;4971469;28;20112;-91
2022/11/03 08:27:18;;;;;;;0.50;0.50;;;13.70;99.90;;;;;;4953177;28;20090;-86
2022/11/03 08:29:44;;;;;;;0.50;0.50;;;13.70;99.90;;;;;;4968416;28;20071;-81
2022/11/03 08:32:10;;;;;;;0.43;0.43;;;13.70;99.90;;;;;;4985696;28;20072;-82
2022/11/03 08:34:36;;;;;;;0.50;0.50;;;13.80;99.90;;;;;;4966935;28;20055;-84
2022/11/03 08:37:02;;;;;;;0.50;0.50;;;13.90;99.90;;;;;;4958572;28;21052;-82
2022/11/03 08:39:30;;;;;;;0.50;0.50;;;13.90;99.90;;;;;;4962059;28;20048;-81
2022/11/03 08:41:56;;;;;;;0.50;0.50;;;13.90;99.90;;;;;;4964579;28;20063;-83
2022/11/03 08:44:21;;;;;;;0.50;0.50;;;14.00;99.90;;;;;;4987749;28;20094;-84
2022/11/03 08:46:47;;;;;;;0.50;0.50;;;14.00;99.90;;;;;;4968526;28;20560;-84
2022/11/03 08:49:13;;;;;;;0.50;0.50;;;14.10;99.90;;;;;;4968668;28;20048;-80
2022/11/03 08:51:39;;;;;;;0.50;0.50;;;14.10;99.90;;;;;;4961877;28;20377;-83
2022/11/03 08:54:05;;;;;;;0.50;0.50;;;14.10;99.90;;;;;;4966541;28;20048;-84
2022/11/03 08:56:31;;;;;;;0.50;0.50;;;14.20;99.90;;;;;;4967782;28;20048;-83
2022/11/03 08:58:56;;;;;;;0.50;0.50;;;14.20;99.90;;;;;;4943436;28;20040;-85
2022/11/03 09:01:22;;;;;;;0.50;0.50;;;14.30;99.90;;;;;;4966119;28;20040;-81
2022/11/03 09:03:48;;;;;;;0.50;0.50;;;14.30;99.90;;;;;;4972102;28;20541;-85
2022/11/03 09:06:16;;;;;;;0.50;0.50;;;14.30;99.90;;;;;;4963875;28;20043;-90
2022/11/03 09:08:42;;;;;;;0.50;0.50;;;14.30;99.90;;;;;;4961322;28;20059;-88
2022/11/03 09:11:08;;;;;;;0.50;0.50;;;14.40;99.90;;;;;;4966988;28;20047;-85
2022/11/03 09:13:33;;;;;;;0.50;0.50;;;14.40;99.90;;;;;;4961910;28;20056;-82
2022/11/03 09:15:59;;;;;;;0.50;0.50;;;14.50;99.90;;;;;;4949446;28;21547;-84
2022/11/03 09:18:25;;;;;;;0.50;0.50;;;14.50;99.90;;;;;;4960198;28;20556;-88
2022/11/03 09:20:51;;;;;;;0.50;0.50;;;14.60;99.90;;;;;;4976668;28;20045;-89
2022/11/03 09:23:17;;;;;;;0.50;0.50;;;14.60;99.90;;;;;;4947447;28;20250;-82
2022/11/03 09:25:42;;;;;;;0.50;0.50;;;14.70;99.90;;;;;;4969012;28;20036;-84
2022/11/03 09:28:08;;;;;;;0.50;0.50;;;14.80;99.90;;;;;;4982048;28;20161;-81
2022/11/03 09:30:34;;;;;;;0.50;0.50;;;14.90;99.90;;;;;;4967464;28;20902;-85
2022/11/03 09:33:00;;;;;;;0.50;0.50;;;14.90;99.90;;;;;;4984034;28;20125;-82
2022/11/03 09:35:26;;;;;;;0.50;0.50;;;15.10;99.90;;;;;;4967340;28;20067;-85
2022/11/03 09:37:52;;;;;;;0.50;0.50;;;15.20;99.90;;;;;;4962127;28;20114;-82
2022/11/03 09:40:20;;;;;;;0.50;0.50;;;15.10;99.90;;;;;;4967499;28;20044;-83
2022/11/03 09:42:46;;;;;;;0.50;0.50;;;15.30;99.90;;;;;;4967208;28;21114;-86
2022/11/03 09:45:12;;;;;;;0.50;0.50;;;15.20;99.90;;;;;;4972646;28;20602;-91
2022/11/03 09:47:45;;;;;;;0.50;0.50;;;15.30;99.90;;;;;;4926514;28;20494;-86
2022/11/03 09:50:15;;;;;;;0.40;0.40;;;15.40;99.90;;;;;;4957984;28;20047;-83
2022/11/03 09:52:42;;;;;;;0.50;0.50;;;15.40;99.90;;;;;;4985080;28;20729;-87
2022/11/03 09:55:25;;;;;;;0.50;0.50;;;15.40;99.90;;;;;;4972312;28;20529;-82
2022/11/03 09:57:54;;;;;;;0.50;0.50;;;15.40;99.90;;;;;;4975179;28;20888;-85
2022/11/03 10:00:22;;;;;;;0.50;0.50;;;15.40;99.90;;;;;;4969191;28;20700;-86
2022/11/03 10:02:48;;;;;;;0.50;0.50;;;15.60;99.90;;;;;;4982079;28;20630;-82
2022/11/03 10:05:26;;;;;;;0.50;0.50;;;15.60;99.90;;;;;;4971585;28;20576;-85
2022/11/03 10:08:01;;;;;;;0.50;0.50;;;15.70;99.90;;;;;;4971633;28;20973;-85
2022/11/03 10:10:28;;;;;;;0.50;0.50;;;15.80;99.90;;;;;;4963605;28;20067;-79
2022/11/03 10:12:54;;;;;;;0.50;0.50;;;15.80;99.90;;;;;;4973472;28;20094;-84
2022/11/03 10:15:22;;;;;;;0.50;0.50;;;15.70;99.90;;;;;;4972483;28;20723;-81
2022/11/03 10:17:51;;;;;;;0.50;0.50;;;15.80;99.90;;;;;;4985320;28;20044;-83
2022/11/03 10:20:19;;;;;;;0.50;0.50;;;15.80;99.90;;;;;;4987803;28;20152;-84
2022/11/03 10:22:49;;;;;;;0.50;0.50;;;15.90;99.90;;;;;;4983883;28;20227;-86
2022/11/03 10:25:43;;;;;;;0.50;0.50;;;15.90;99.90;;;;;;4954310;28;20129;-85
2022/11/03 10:28:21;;;;;;;0.50;0.50;;;15.90;99.90;;;;;;4994050;28;20053;-83
2022/11/03 10:30:50;;;;;;;0.40;0.40;;;15.80;99.90;;;;;;4992071;28;20867;-81
2022/11/03 10:33:54;;;;;;;0.40;0.40;;;15.90;99.90;;;;;;4968038;28;20468;-80
2022/11/03 10:36:25;;;;;;;0.50;0.50;;;16.00;99.90;;;;;;4981869;28;20080;-79
2022/11/03 10:38:51;;;;;;;0.40;0.40;;;16.30;99.90;;;;;;4967127;28;20944;-81
2022/11/03 10:41:47;;;;;;;0.40;0.40;;;16.50;99.90;;;;;;4963268;28;20377;-81
2022/11/03 10:44:19;;;;;;;0.40;0.40;;;16.50;99.90;;;;;;4987114;28;20511;-80
2022/11/03 10:46:59;;;;;;;0.50;0.50;;;16.60;99.90;;;;;;4976695;28;20055;-80
2022/11/03 10:49:29;;;;;;;0.40;0.40;;;16.60;99.90;;;;;;4964539;28;20539;-81
2022/11/03 10:52:06;;;;;;;0.40;0.40;;;16.70;99.90;;;;;;4986100;28;20051;-80
2022/11/03 10:54:35;;;;;;;0.40;0.40;;;16.80;99.90;;;;;;4968747;28;20052;-81
2022/11/03 10:57:01;;;;;;;0.40;0.40;;;16.60;99.90;;;;;;4970902;28;20058;-81
2022/11/03 10:59:32;;;;;;;0.40;0.40;;;16.70;99.90;;;;;;4962967;28;20882;-81
2022/11/03 11:01:59;;;;;;;0.40;0.40;;;16.50;99.90;;;;;;4986347;28;20574;-80
2022/11/03 11:04:25;;;;;;;0.40;0.40;;;16.60;99.90;;;;;;4949211;28;20110;-84
2022/11/03 11:06:51;;;;;;;0.40;0.40;;;16.40;99.90;;;;;;4976377;28;20056;-85
2022/11/03 11:09:25;;;;;;;0.40;0.40;;;16.40;99.90;;;;;;4973952;28;20972;-83
2022/11/03 11:12:17;;;;;;;0.40;0.40;;;16.30;99.90;;;;;;4988709;28;21404;-78
2022/11/03 11:14:57;;;;;;;0.40;0.40;;;16.20;99.90;;;;;;4978870;28;20555;-79
2022/11/03 11:17:41;;;;;;;0.40;0.40;;;16.10;99.90;;;;;;4967139;28;20827;-79
2022/11/03 11:20:30;;;;;;;0.50;0.50;;;16.00;99.90;;;;;;4975907;28;20729;-75
2022/11/03 11:23:27;;;;;;;0.50;0.50;;;15.90;99.90;;;;;;4981712;28;20072;-79
2022/11/03 11:26:08;;;;;;;0.40;0.40;;;15.90;99.90;;;;;;4979312;28;20102;-80
2022/11/03 11:28:38;;;;;;;0.50;0.50;;;15.80;99.90;;;;;;4982136;28;20041;-84
2022/11/03 11:31:25;;;;;;;0.50;0.50;;;15.80;99.90;;;;;;4971809;28;20900;-75
2022/11/03 11:37:04;;;;;;;0.45;0.45;;;15.70;99.90;;;;;;4954958;28;20131;-77
2022/11/03 11:39:30;;;;;;;0.50;0.50;;;15.60;99.90;;;;;;4949020;28;20663;-77
2022/11/03 11:42:09;;;;;;;0.50;0.50;;;15.70;99.90;;;;;;4974477;28;20414;-82
2022/11/03 11:44:38;;;;;;;0.50;0.50;;;15.60;99.90;;;;;;4970621;28;20036;-77
2022/11/03 11:47:22;;;;;;;0.45;0.45;;;15.60;99.90;;;;;;4988442;28;20086;-75
2022/11/03 11:49:48;;;;;;;0.50;0.50;;;15.50;99.90;;;;;;4972828;28;20055;-78
2022/11/03 11:52:14;;;;;;;0.50;0.50;;;15.50;99.90;;;;;;4979652;28;20970;-77
2022/11/03 11:54:41;;;;;;;0.40;0.40;;;15.50;99.90;;;;;;4985827;28;20040;-79
2022/11/03 11:57:29;;;;;;;0.50;0.50;;;15.40;99.90;;;;;;4957614;28;20906;-78
2022/11/03 11:59:55;;;;;;;0.50;0.50;;;15.50;99.90;;;;;;4981685;28;20057;-79
2022/11/03 12:02:23;;;;;;;0.50;0.50;;;15.50;99.90;;;;;;4945699;28;20117;-81
2022/11/03 12:05:01;;;;;;;0.40;0.40;;;15.40;99.90;;;;;;4990809;28;20040;-79
2022/11/03 12:07:32;;;;;;;0.40;0.40;;;15.50;99.90;;;;;;4987879;28;20203;-80
2022/11/03 12:10:29;;;;;;;0.40;0.40;;;15.40;99.90;;;;;;4971172;28;20047;-81
2022/11/03 12:12:56;;;;;;;0.40;0.40;;;15.40;99.90;;;;;;4969020;28;20549;-79
2022/11/03 12:15:54;;;;;;;0.40;0.40;;;15.40;99.90;;;;;;4971838;28;20938;-81
2022/11/03 12:18:40;;;;;;;0.40;0.40;;;15.40;99.90;;;;;;4967134;28;20519;-78
2022/11/03 12:21:15;;;;;;;0.50;0.50;;;15.30;99.90;;;;;;4974491;28;20072;-81
2022/11/03 12:23:43;;;;;;;0.40;0.40;;;15.40;99.90;;;;;;4960641;28;20048;-80
2022/11/03 12:26:27;;;;;;;0.50;0.50;;;15.30;99.90;;;;;;4990240;28;20055;-81
2022/11/03 12:28:53;;;;;;;0.50;0.50;;;15.40;99.90;;;;;;4984589;28;20476;-77
2022/11/03 12:31:19;;;;;;;0.50;0.50;;;15.40;99.90;;;;;;4983761;28;20652;-79
2022/11/03 12:33:45;;;;;;;0.47;0.47;;;15.30;99.90;;;;;;4984951;28;20769;-78
2022/11/03 12:36:11;;;;;;;0.40;0.40;;;15.40;99.90;;;;;;4985521;28;20109;-79
2022/11/03 12:38:37;;;;;;;0.50;0.50;;;15.40;99.90;;;;;;4983455;28;20269;-81
2022/11/03 12:41:21;;;;;;;0.50;0.50;;;15.40;99.90;;;;;;4974257;28;20051;-77
2022/11/03 12:43:48;;;;;;;0.50;0.50;;;15.40;99.90;;;;;;4989634;28;20044;-80
2022/11/03 12:46:19;;;;;;;0.40;0.40;;;15.50;99.90;;;;;;4992303;28;20266;-79
2022/11/03 12:48:46;;;;;;;0.40;0.40;;;15.50;99.90;;;;;;4979437;28;20047;-78
2022/11/03 12:51:17;;;;;;;0.50;0.50;;;15.60;99.90;;;;;;4981817;28;20036;-77
2022/11/03 12:53:44;;;;;;;0.50;0.50;;;15.90;99.90;;;;;;4985016;28;20057;-79
2022/11/03 12:56:10;;;;;;;0.40;0.40;;;16.10;99.90;;;;;;4975990;28;20553;-78
2022/11/03 12:58:37;;;;;;;0.50;0.50;;;16.20;99.90;;;;;;4989027;28;20093;-79
2022/11/03 13:01:04;;;;;;;0.50;0.50;;;16.40;99.90;;;;;;4969323;28;20047;-77
2022/11/03 13:03:30;;;;;;;0.50;0.50;;;16.70;99.90;;;;;;4982878;28;20375;-78
2022/11/03 13:05:56;;;;;;;0.50;0.50;;;16.70;99.90;;;;;;4973636;28;21140;-79
2022/11/03 13:08:22;;;;;;;0.40;0.40;;;16.60;99.90;;;;;;4984676;28;20059;-78
2022/11/03 13:10:48;;;;;;;0.40;0.40;;;16.60;99.90;;;;;;4983539;28;20040;-77
2022/11/03 13:13:13;;;;;;;0.40;0.40;;;16.50;99.90;;;;;;4974428;28;20043;-79
2022/11/03 13:15:39;;;;;;;0.40;0.40;;;16.50;99.90;;;;;;4966054;28;20105;-78
2022/11/03 13:18:05;;;;;;;0.45;0.45;;;16.40;99.90;;;;;;4965276;28;20036;-80
2022/11/03 13:20:32;;;;;;;0.50;0.50;;;16.40;99.90;;;;;;4959281;28;20053;-79
2022/11/03 13:22:57;;;;;;;0.50;0.50;;;16.30;99.90;;;;;;4965994;28;20562;-75
2022/11/03 13:25:23;;;;;;;0.40;0.40;;;16.30;99.90;;;;;;4964375;28;20045;-79
2022/11/03 13:27:52;;;;;;;0.50;0.50;;;16.20;99.90;;;;;;4951818;28;20246;-81
2022/11/03 13:30:19;;;;;;;0.40;0.40;;;16.10;99.90;;;;;;4958272;28;20207;-78